M I D A S
Marine Information and Data Acquisition System
Tripno 1950 of the Zeeleeuw from 2010-09-01 06:23:04 to 2010-09-01 11:33:48
Back to CruiseResearch ActivitiesStationsMapUnderway DataData graphs

EquipmentUnitsComment
TimeDGPSUTC
LatitudeDGPSDM.mWGS84
LongitudeDGPSDM.mWGS84
HeadingGyrodeg 
SOGDGPSknotsSpeed over ground
COGDGPSdegCourse over ground
DepthEcho soundermeters200 kHz
Missing or incorrect values are displayed as -999
Navigation data collected by the RV Zeeleeuw from 2010-09-01 05:50:38 to 2010-09-01 11:30:41
Time Latitude Longitude Heading SOG COG Depth
2010-09-01 05:51:42 51°13.663 2°55.958 124.5 -999 102 8
2010-09-01 05:52:42 51°13.663 2°55.958 124.5 -999 219 8
2010-09-01 05:53:42 51°13.662 2°55.958 124.7 0.1 88 8
2010-09-01 05:54:42 51°13.662 2°55.958 124.8 -999 15 7.9
2010-09-01 05:55:42 51°13.662 2°55.958 124.6 -999 243 7.9
2010-09-01 05:56:42 51°13.662 2°55.958 124.7 -999 223 7.9
2010-09-01 05:57:42 51°13.663 2°55.959 124.7 -999 68 7.9
2010-09-01 05:58:42 51°13.662 2°55.959 127.6 -999 236 8
2010-09-01 05:59:42 51°13.662 2°55.959 128.4 -999 263 7.9
2010-09-01 06:00:41 51°13.662 2°55.96 128.5 -999 111 7.9
2010-09-01 06:01:42 51°13.662 2°55.959 128.5 -999 263 8
2010-09-01 06:02:42 51°13.662 2°55.96 128.6 -999 122 7.9
2010-09-01 06:03:41 51°13.662 2°55.96 128.6 0.1 2 7.9
2010-09-01 06:04:41 51°13.662 2°55.961 126.6 -999 165 7.8
2010-09-01 06:05:42 51°13.661 2°55.961 114.5 0.1 190 7.9
2010-09-01 06:06:43 51°13.666 2°55.935 111.6 2.8 290 -999
2010-09-01 06:07:46 51°13.691 2°55.846 108.4 3.5 289 -999
2010-09-01 06:08:46 51°13.698 2°55.758 85.2 2.9 263 -999
2010-09-01 06:09:45 51°13.698 2°55.747 54.8 1.2 59 15
2010-09-01 06:10:45 51°13.686 2°55.747 35.2 0.5 57 -999
2010-09-01 06:11:45 51°13.726 2°55.746 333.2 3.4 328 14.2
2010-09-01 06:12:43 51°13.787 2°55.666 327.2 6.1 326 13.4
2010-09-01 06:13:42 51°13.888 2°55.588 335.7 7.4 335 12.3
2010-09-01 06:14:42 51°14.007 2°55.5 335.8 8.5 334 12.4
2010-09-01 06:15:43 51°14.143 2°55.399 334.8 9.1 334 12.3
2010-09-01 06:16:44 51°14.287 2°55.27 331.7 10.1 330 12.2
2010-09-01 06:17:42 51°14.429 2°55.135 330.7 10.7 328 12.2
2010-09-01 06:18:42 51°14.594 2°54.965 329.4 12.5 328 12.6
2010-09-01 06:19:42 51°14.775 2°54.777 326.2 13 328 -999
2010-09-01 06:20:45 51°14.959 2°54.569 321.2 12.8 323 12.2
2010-09-01 06:21:44 51°15.132 2°54.369 321.2 13.1 322 11.5
2010-09-01 06:22:42 51°15.3 2°54.165 322 13.1 323 11.9
2010-09-01 06:23:42 51°15.474 2°53.953 321.3 13.1 322 12.4
2010-09-01 06:24:42 51°15.648 2°53.742 321 13.1 323 12.8
2010-09-01 06:25:42 51°15.822 2°53.537 320.9 12.9 323 13.1
2010-09-01 06:26:42 51°15.996 2°53.333 321.3 13 324 13
2010-09-01 06:27:52 51°16.215 2°53.127 329.8 13.1 332 13.1
2010-09-01 06:29:29 51°16.528 2°52.865 329.6 13.2 332 13.2
2010-09-01 06:33:32 51°17.316 2°52.216 329.1 13.4 332 13
2010-09-01 06:35:56 51°17.765 2°51.777 317.1 13 320 12.1
2010-09-01 06:36:57 51°17.922 2°51.535 311.9 13 314 12.1
2010-09-01 06:37:56 51°18.071 2°51.294 312.5 12.9 314 12.7
2010-09-01 06:38:56 51°18.222 2°51.048 313.3 13 314 13.9
2010-09-01 06:39:56 51°18.374 2°50.801 312.9 13 314 14.7
2010-09-01 06:40:57 51°18.53 2°50.549 313.2 13.2 316 15.9
2010-09-01 06:41:56 51°18.679 2°50.304 312.9 13 314 15.8
2010-09-01 06:42:56 51°18.83 2°50.058 313.3 13 315 14.3
2010-09-01 06:43:57 51°18.983 2°49.811 313.3 12.8 314 12.8
2010-09-01 06:44:56 51°19.132 2°49.574 313.3 13 314 13.4
2010-09-01 06:45:56 51°19.285 2°49.333 313.2 12.9 316 14.9
2010-09-01 06:46:56 51°19.436 2°49.088 313 12.9 315 16.5
2010-09-01 06:47:56 51°19.589 2°48.845 314.2 12.9 317 19.3
2010-09-01 06:48:56 51°19.746 2°48.605 313.6 13 316 21.9
2010-09-01 06:49:56 51°19.894 2°48.353 308.7 13 312 23.4
2010-09-01 06:50:56 51°20.039 2°48.096 309.1 13 312 23.6
2010-09-01 06:51:56 51°20.178 2°47.837 309.3 12.8 311 22.6
2010-09-01 06:52:56 51°20.319 2°47.585 309.3 12.7 312 21.2
2010-09-01 06:53:57 51°20.46 2°47.329 309.3 12.7 312 18
2010-09-01 06:54:56 51°20.598 2°47.082 309.6 12.7 313 20.1
2010-09-01 06:55:57 51°20.742 2°46.826 309.3 12.7 311 20.9
2010-09-01 06:56:56 51°20.883 2°46.581 309.6 12.6 314 23.5
2010-09-01 06:57:57 51°21.029 2°46.325 309.2 12.9 312 25.5
2010-09-01 06:58:56 51°21.171 2°46.078 309.4 12.9 313 26.1
2010-09-01 06:59:56 51°21.318 2°45.828 309.3 12.9 313 27.1
2010-09-01 07:00:56 51°21.466 2°45.574 309.2 13 314 26.1
2010-09-01 07:01:56 51°21.605 2°45.309 305.8 13.1 309 24.6
2010-09-01 07:02:57 51°21.746 2°45.038 305.9 13 310 23.5
2010-09-01 07:03:56 51°21.877 2°44.775 306.4 12.7 309 22.7
2010-09-01 07:04:57 51°22.011 2°44.509 306 12.7 309 21.5
2010-09-01 07:05:56 51°22.141 2°44.255 305.9 12.6 310 23.9
2010-09-01 07:06:56 51°22.274 2°43.996 306.3 12.5 310 26.5
2010-09-01 07:07:56 51°22.405 2°43.737 305.5 12.5 308 25.2
2010-09-01 07:08:57 51°22.536 2°43.488 306 10.1 311 27.1
2010-09-01 07:09:56 51°22.616 2°43.352 305.6 5.4 316 24.8
2010-09-01 07:10:56 51°22.662 2°43.293 311.1 1.6 347 25.5
2010-09-01 07:11:56 51°22.674 2°43.307 308.6 0.9 24 25.9
2010-09-01 07:12:56 51°22.686 2°43.32 297.6 1 46 24.5
2010-09-01 07:13:57 51°22.696 2°43.331 294.3 0.6 19 24.4
2010-09-01 07:14:56 51°22.706 2°43.342 291.9 0.7 21 26.5
2010-09-01 07:15:57 51°22.716 2°43.349 290.2 0.7 33 27.4
2010-09-01 07:16:56 51°22.724 2°43.355 295.9 0.5 18 25.5
2010-09-01 07:17:56 51°22.732 2°43.362 302.8 0.5 32 25.9
2010-09-01 07:18:56 51°22.74 2°43.371 308.3 0.6 36 26.5
2010-09-01 07:19:56 51°22.746 2°43.38 310.9 0.5 45 26
2010-09-01 07:20:57 51°22.752 2°43.391 311.9 0.7 59 25
2010-09-01 07:21:56 51°22.757 2°43.401 313.5 0.5 51 25.3
2010-09-01 07:22:57 51°22.762 2°43.412 314.4 0.3 59 26.3
2010-09-01 07:23:56 51°22.765 2°43.423 311.8 0.5 73 26.2
2010-09-01 07:24:57 51°22.768 2°43.434 305.8 0.4 74 25.2
2010-09-01 07:25:56 51°22.769 2°43.447 300.9 0.4 90 25.2
2010-09-01 07:26:56 51°22.771 2°43.46 296.8 0.5 91 26.8
2010-09-01 07:27:57 51°22.773 2°43.474 293.5 0.7 77 26.9
2010-09-01 07:28:56 51°22.775 2°43.487 290.5 0.6 74 26.6
2010-09-01 07:29:56 51°22.777 2°43.501 288.4 0.4 68 25.8
2010-09-01 07:30:56 51°22.778 2°43.517 288 0.6 84 24.2
2010-09-01 07:31:57 51°22.779 2°43.533 288.3 0.8 80 26.3
2010-09-01 07:32:56 51°22.781 2°43.547 288.5 0.6 76 25.9
2010-09-01 07:33:57 51°22.782 2°43.563 289.6 0.6 80 25.1
2010-09-01 07:34:56 51°22.782 2°43.58 289.4 0.6 77 24.2
2010-09-01 07:35:56 51°22.783 2°43.593 284.6 0.3 335 26.1
2010-09-01 07:36:57 51°22.782 2°43.561 247.6 2.2 253 25.2
2010-09-01 07:37:56 51°22.762 2°43.486 245.2 3.3 251 26.4
2010-09-01 07:38:56 51°22.743 2°43.417 243.6 2.4 247 25.7
2010-09-01 07:39:56 51°22.736 2°43.39 242.7 0.6 63 26.2
2010-09-01 07:40:57 51°22.738 2°43.398 246.8 0.4 92 25.7
2010-09-01 07:41:56 51°22.74 2°43.406 251 0.3 72 24.3
2010-09-01 07:42:56 51°22.742 2°43.411 260.1 0.2 47 25.1
2010-09-01 07:43:56 51°22.745 2°43.416 270.5 0.3 47 25.9
2010-09-01 07:44:56 51°22.749 2°43.421 280.2 0.4 43 25.8
2010-09-01 07:45:56 51°22.753 2°43.427 289.6 0.4 48 25.8
2010-09-01 07:46:56 51°22.758 2°43.434 297.2 0.4 44 26.2
2010-09-01 07:47:56 51°22.761 2°43.44 304 0.3 48 25.1
2010-09-01 07:48:57 51°22.764 2°43.448 308.5 0.3 63 24.5
2010-09-01 07:49:56 51°22.766 2°43.457 310.1 0.4 77 26.1
2010-09-01 07:50:57 51°22.768 2°43.466 308.8 0.4 74 26.6
2010-09-01 07:51:56 51°22.767 2°43.474 305.2 0.4 104 26.8
2010-09-01 07:52:56 51°22.768 2°43.484 301.2 0.4 95 26.9
2010-09-01 07:53:56 51°22.766 2°43.494 297.9 0.4 114 26.2
2010-09-01 07:54:56 51°22.765 2°43.505 293.3 0.5 96 25.4
2010-09-01 07:55:56 51°22.764 2°43.515 289.7 0.3 109 25.1
2010-09-01 07:56:57 51°22.765 2°43.513 280.8 0.6 281 25.7
2010-09-01 07:57:56 51°22.768 2°43.485 271.8 1.3 279 26.4
2010-09-01 07:58:56 51°22.768 2°43.451 253.1 1.4 254 25
2010-09-01 07:59:56 51°22.76 2°43.427 233.3 0.9 234 25.5
2010-09-01 08:00:56 51°22.752 2°43.412 235.3 0.7 239 25.1
2010-09-01 08:01:57 51°22.749 2°43.408 247.8 0.2 271 25.2
2010-09-01 08:02:56 51°22.748 2°43.405 260.4 0.1 277 25
2010-09-01 08:03:57 51°22.749 2°43.401 271.5 0.1 307 24.9
2010-09-01 08:04:56 51°22.75 2°43.4 280 -999 335 24.7
2010-09-01 08:05:56 51°22.752 2°43.4 287.9 0.2 26 24.4
2010-09-01 08:06:56 51°22.754 2°43.401 294.9 0.1 9 24.4
2010-09-01 08:07:56 51°22.755 2°43.404 303 0.1 77 24.7
2010-09-01 08:08:56 51°22.756 2°43.407 309.7 0.1 81 25.1
2010-09-01 08:09:57 51°22.758 2°43.407 316.3 0.9 330 25.6
2010-09-01 08:10:56 51°22.795 2°43.405 12.8 2.9 19 23.8
2010-09-01 08:11:57 51°22.827 2°43.469 75.6 3.3 77 25.1
2010-09-01 08:12:56 51°22.817 2°43.545 118.9 2.8 116 24
2010-09-01 08:13:56 51°22.806 2°43.577 151.5 0.3 43 25.8
2010-09-01 08:15:00 51°22.804 2°43.58 175.9 0.8 164 -999
2010-09-01 08:15:58 51°22.782 2°43.565 223.6 2 223 25.2
2010-09-01 08:16:56 51°22.765 2°43.53 238.8 1.6 240 24.3
2010-09-01 08:17:56 51°22.755 2°43.5 245.4 1.2 248 25.4
2010-09-01 08:18:56 51°22.749 2°43.477 251.2 0.8 253 25.8
2010-09-01 08:19:56 51°22.746 2°43.465 260.3 0.3 253 24.2
2010-09-01 08:20:57 51°22.745 2°43.46 271.2 0.1 252 23.5
2010-09-01 08:21:56 51°22.745 2°43.464 275.2 0.3 102 24.1
2010-09-01 08:22:57 51°22.745 2°43.468 276.6 0.1 106 24.9
2010-09-01 08:23:56 51°22.744 2°43.47 273.9 0.1 165 25.2
2010-09-01 08:24:56 51°22.746 2°43.468 269.3 0.2 316 24.8
2010-09-01 08:25:56 51°22.747 2°43.462 265.4 0.2 276 24.1
2010-09-01 08:26:56 51°22.749 2°43.454 259.1 0.3 297 23.6
2010-09-01 08:27:56 51°22.749 2°43.444 253.1 0.4 278 24.7
2010-09-01 08:28:57 51°22.748 2°43.434 247.7 0.4 260 25.2
2010-09-01 08:29:56 51°22.747 2°43.425 244.1 0.3 270 25.3
2010-09-01 08:30:56 51°22.747 2°43.416 240.3 0.2 273 25.5
2010-09-01 08:31:56 51°22.751 2°43.416 236 0.4 39 25.4
2010-09-01 08:32:56 51°22.757 2°43.419 243.4 0.4 26 25.2
2010-09-01 08:33:56 51°22.761 2°43.42 252.2 0.3 351 25.7
2010-09-01 08:34:56 51°22.764 2°43.421 257.5 0.2 327 25.4
2010-09-01 08:35:56 51°22.767 2°43.421 261.6 0.1 311 25.7
2010-09-01 08:36:57 51°22.768 2°43.417 263.4 0.2 294 25.7
2010-09-01 08:37:56 51°22.77 2°43.413 261.4 0.3 290 25.7
2010-09-01 08:38:57 51°22.77 2°43.406 255.6 0.3 268 25.5
2010-09-01 08:39:56 51°22.769 2°43.397 247.6 0.5 261 25.1
2010-09-01 08:40:56 51°22.768 2°43.386 241 0.4 248 24.2
2010-09-01 08:41:56 51°22.767 2°43.378 235.2 0.2 276 24.3
2010-09-01 08:42:56 51°22.769 2°43.376 232.3 0.4 338 24.4
2010-09-01 08:43:56 51°22.776 2°43.381 239.4 0.6 41 24.8
2010-09-01 08:44:56 51°22.782 2°43.392 249.7 0.5 59 25.8
2010-09-01 08:45:56 51°22.785 2°43.399 254.3 0.3 57 26
2010-09-01 08:46:56 51°22.788 2°43.402 256.9 0.1 32 25.9
2010-09-01 08:47:56 51°22.79 2°43.402 259.2 -999 47 25.7
2010-09-01 08:48:57 51°22.792 2°43.397 258.3 0.2 278 25.9
2010-09-01 08:49:56 51°22.792 2°43.391 255.4 0.3 286 25.5
2010-09-01 08:50:56 51°22.791 2°43.383 252.4 0.3 259 26.1
2010-09-01 08:51:56 51°22.791 2°43.372 248.8 0.5 268 25.6
2010-09-01 08:52:56 51°22.789 2°43.36 245.1 0.5 263 25.5
2010-09-01 08:53:56 51°22.787 2°43.347 241.9 0.6 263 25.4
2010-09-01 08:54:56 51°22.787 2°43.338 240.3 0.2 312 25.9
2010-09-01 08:55:56 51°22.79 2°43.342 247.1 0.5 58 25.5
2010-09-01 08:56:57 51°22.795 2°43.36 259.4 0.7 77 26.4
2010-09-01 08:57:56 51°22.796 2°43.38 265.1 0.7 89 25.5
2010-09-01 08:58:56 51°22.797 2°43.401 270.1 0.7 88 24.5
2010-09-01 08:59:56 51°22.795 2°43.416 272.5 0.5 115 24.8
2010-09-01 09:00:57 51°22.792 2°43.426 271.1 0.3 125 23.9
2010-09-01 09:01:56 51°22.79 2°43.431 267.3 0.2 149 24.4
2010-09-01 09:02:56 51°22.787 2°43.428 262.3 0.5 241 23.8
2010-09-01 09:03:56 51°22.782 2°43.405 255.5 1.2 249 25.8
2010-09-01 09:04:56 51°22.774 2°43.367 251.5 1.6 250 24.4
2010-09-01 09:05:57 51°22.765 2°43.33 246.1 1.4 255 26
2010-09-01 09:06:57 51°22.765 2°43.329 246.4 0.9 64 -999
2010-09-01 09:08:00 51°22.774 2°43.373 251.5 2 72 -999
2010-09-01 09:08:59 51°22.782 2°43.427 256.4 1.8 78 23.4
2010-09-01 09:09:57 51°22.786 2°43.466 262.1 1.3 79 25.8
2010-09-01 09:10:56 51°22.787 2°43.494 268.3 0.9 92 24.9
2010-09-01 09:11:56 51°22.784 2°43.514 274.4 0.7 117 23.2
2010-09-01 09:12:56 51°22.779 2°43.527 274.7 0.4 127 24.4
2010-09-01 09:13:56 51°22.775 2°43.536 273.3 0.3 121 25.2
2010-09-01 09:14:56 51°22.77 2°43.528 259.8 0.9 246 24
2010-09-01 09:15:56 51°22.76 2°43.497 233.8 1.8 237 25.6
2010-09-01 09:16:56 51°22.743 2°43.461 227.9 1.7 236 22.8
2010-09-01 09:17:56 51°22.729 2°43.433 222.6 1.2 238 24.1
2010-09-01 09:18:57 51°22.724 2°43.418 225.4 0.3 278 24.7
2010-09-01 09:19:56 51°22.725 2°43.416 236.2 0.2 8 24.4
2010-09-01 09:20:56 51°22.727 2°43.42 244.7 0.2 77 23.5
2010-09-01 09:21:56 51°22.728 2°43.428 251.2 0.4 87 23.8
2010-09-01 09:22:56 51°22.728 2°43.436 255.9 0.3 100 24
2010-09-01 09:23:56 51°22.726 2°43.446 259.9 0.3 116 24.6
2010-09-01 09:24:56 51°22.724 2°43.418 290.1 2.1 280 23.6
2010-09-01 09:25:56 51°22.743 2°43.342 304.8 3.3 297 26.7
2010-09-01 09:26:56 51°22.764 2°43.274 307.1 2.4 293 23.9
2010-09-01 09:27:56 51°22.777 2°43.222 309.2 1.9 292 24.9
2010-09-01 09:28:56 51°22.786 2°43.181 311.6 1.5 290 25
2010-09-01 09:29:56 51°22.792 2°43.149 312.4 1.1 287 25.9
2010-09-01 09:30:56 51°22.803 2°43.118 332.1 1.4 311 26.4
2010-09-01 09:31:56 51°22.833 2°43.112 28.5 2 25 26.4
2010-09-01 09:32:56 51°22.85 2°43.151 74.9 1.7 78 25.2
2010-09-01 09:33:56 51°22.844 2°43.191 106.8 1.4 120 24.8
2010-09-01 09:34:56 51°22.825 2°43.213 133.6 1.6 159 25.7
2010-09-01 09:35:56 51°22.8 2°43.223 148.4 1.6 174 25.8
2010-09-01 09:36:56 51°22.775 2°43.223 153.7 1.4 186 25
2010-09-01 09:37:56 51°22.755 2°43.217 153.6 1 209 22.3
2010-09-01 09:38:56 51°22.746 2°43.201 158.3 0.8 235 24.3
2010-09-01 09:39:56 51°22.739 2°43.182 171.9 0.8 239 25.3
2010-09-01 09:40:56 51°22.731 2°43.162 182.3 0.9 235 26.2
2010-09-01 09:41:56 51°22.722 2°43.142 192 1 237 25.6
2010-09-01 09:42:56 51°22.713 2°43.119 201.7 1 243 22.5
2010-09-01 09:43:56 51°22.704 2°43.095 209.3 1.1 242 24.8
2010-09-01 09:44:56 51°22.691 2°43.069 204.3 1.9 217 25.6
2010-09-01 09:45:57 51°22.655 2°43.063 148.2 2.3 164 25
2010-09-01 09:46:56 51°22.632 2°43.101 94.4 1.9 108 25.7
2010-09-01 09:47:56 51°22.638 2°43.142 55 1.7 56 24.1
2010-09-01 09:48:56 51°22.655 2°43.172 46.1 1.2 39 25.4
2010-09-01 09:49:57 51°22.667 2°43.182 40 0.5 15 25.9
2010-09-01 09:50:56 51°22.673 2°43.182 42.1 0.3 351 25.8
2010-09-01 09:51:56 51°22.676 2°43.179 44.8 0.2 301 25.6
2010-09-01 09:52:56 51°22.677 2°43.172 45.4 0.3 261 25.9
2010-09-01 09:53:56 51°22.676 2°43.162 44.5 0.5 262 25.7
2010-09-01 09:54:56 51°22.674 2°43.148 42.4 0.6 258 24.8
2010-09-01 09:55:56 51°22.672 2°43.131 37.9 0.6 253 22.5
2010-09-01 09:56:56 51°22.669 2°43.113 30.1 0.6 256 24.1
2010-09-01 09:57:56 51°22.667 2°43.091 19.2 0.9 255 25.3
2010-09-01 09:58:56 51°22.662 2°43.07 9.3 1 254 25.7
2010-09-01 09:59:56 51°22.659 2°43.047 6.7 0.8 270 23.6
2010-09-01 10:00:56 51°22.668 2°43.036 34.8 1.4 24 23
2010-09-01 10:01:57 51°22.674 2°43.08 93.9 1.9 106 25.7
2010-09-01 10:02:56 51°22.659 2°43.119 107.3 1.7 127 25
2010-09-01 10:03:56 51°22.639 2°43.15 112.1 1.6 141 23.7
2010-09-01 10:04:56 51°22.629 2°43.193 72.1 2.1 75 24.4
2010-09-01 10:05:56 51°22.643 2°43.221 43.3 0.9 36 25.2
2010-09-01 10:06:56 51°22.658 2°43.236 42.5 1.2 34 24.5
2010-09-01 10:07:57 51°22.675 2°43.259 49.4 1.3 45 22.4
2010-09-01 10:08:56 51°22.691 2°43.285 52.2 1.5 52 24.7
2010-09-01 10:09:56 51°22.705 2°43.318 54.9 1.4 54 22.8
2010-09-01 10:10:56 51°22.713 2°43.333 49.5 0.1 320 25.5
2010-09-01 10:11:56 51°22.713 2°43.33 51.2 0.1 332 24.8
2010-09-01 10:12:56 51°22.716 2°43.337 50.5 0.3 47 26
2010-09-01 10:13:56 51°22.722 2°43.344 47.8 0.5 39 24.5
2010-09-01 10:14:56 51°22.73 2°43.351 44.2 0.3 3 25.6
2010-09-01 10:15:56 51°22.733 2°43.346 39.3 0.4 289 26
2010-09-01 10:16:56 51°22.733 2°43.335 37.7 0.5 258 25.7
2010-09-01 10:17:56 51°22.729 2°43.32 37.4 0.7 264 24.8
2010-09-01 10:18:56 51°22.746 2°43.326 35.8 2.2 29 25.4
2010-09-01 10:19:56 51°22.769 2°43.342 37.1 1.2 24 25.9
2010-09-01 10:20:56 51°22.784 2°43.345 33 0.7 352 25.1
2010-09-01 10:21:56 51°22.794 2°43.338 27.4 0.6 316 25.3
2010-09-01 10:22:56 51°22.798 2°43.324 24.9 0.7 281 25.6
2010-09-01 10:23:56 51°22.804 2°43.311 32 1.2 18 25.6
2010-09-01 10:24:56 51°22.809 2°43.393 101.1 5.9 113 23.8
2010-09-01 10:25:56 51°22.7 2°43.559 136.2 11.3 141 23.1
2010-09-01 10:26:56 51°22.538 2°43.765 135.8 12.8 145 25.3
2010-09-01 10:27:56 51°22.373 2°43.984 135.3 12.9 140 24.8
2010-09-01 10:28:56 51°22.205 2°44.197 135.9 12.8 140 23.6
2010-09-01 10:29:56 51°22.039 2°44.414 134.7 13 138 22.6
2010-09-01 10:30:56 51°21.879 2°44.641 134.1 12.9 133 22.1
2010-09-01 10:31:56 51°21.723 2°44.875 132.4 12.9 139 21.1
2010-09-01 10:32:56 51°21.567 2°45.113 132.5 12.9 135 22.5
2010-09-01 10:33:56 51°21.41 2°45.351 131.6 12.8 134 24.3
2010-09-01 10:34:56 51°21.24 2°45.563 143.1 13 145 25
2010-09-01 10:35:56 51°21.055 2°45.738 141.6 13 146 24.3
2010-09-01 10:36:56 51°20.88 2°45.933 138.5 12.8 143 24.1
2010-09-01 10:37:56 51°20.729 2°46.165 127.9 12.5 132 21.4
2010-09-01 10:38:56 51°20.589 2°46.408 128.6 12.6 132 20.6
2010-09-01 10:39:56 51°20.441 2°46.643 129 12.3 134 15.4
2010-09-01 10:40:56 51°20.294 2°46.879 129.6 12.3 138 14.1
2010-09-01 10:41:56 51°20.146 2°47.114 130.5 12.5 138 17.7
2010-09-01 10:42:56 51°19.995 2°47.348 132.1 12.9 137 20.2
2010-09-01 10:43:56 51°19.844 2°47.583 131.3 12.9 140 21.3
2010-09-01 10:44:56 51°19.69 2°47.817 130.7 12.9 139 21.2
2010-09-01 10:45:56 51°19.54 2°48.049 130 12.3 131 20.1
2010-09-01 10:46:56 51°19.389 2°48.275 130.8 12.4 137 18
2010-09-01 10:47:56 51°19.245 2°48.51 125.8 12 131 16.2
2010-09-01 10:48:56 51°19.104 2°48.745 126.2 12.2 130 14
2010-09-01 10:49:56 51°18.962 2°48.98 127.4 12.3 135 11.6
2010-09-01 10:50:56 51°18.823 2°49.217 127.2 12.5 132 10.3
2010-09-01 10:51:56 51°18.683 2°49.453 126.9 12.2 133 9.9
2010-09-01 10:52:56 51°18.543 2°49.691 124.9 12.4 133 11.5
2010-09-01 10:53:56 51°18.397 2°49.928 128.3 12.7 135 13
2010-09-01 10:54:56 51°18.253 2°50.168 121.8 12.3 135 13.3
2010-09-01 10:55:56 51°18.113 2°50.415 126.2 12.7 130 12.6
2010-09-01 10:56:56 51°17.99 2°50.679 117.9 12.1 122 11.8
2010-09-01 10:57:56 51°17.872 2°50.948 118.2 12.3 126 10.8
2010-09-01 10:58:56 51°17.755 2°51.215 115.4 11.9 120 9.4
2010-09-01 10:59:56 51°17.636 2°51.48 116.2 12.1 124 8.9
2010-09-01 11:00:56 51°17.517 2°51.749 118 12.5 123 9.3
2010-09-01 11:01:56 51°17.381 2°52.006 127.2 12.8 139 9.6
2010-09-01 11:02:56 51°17.203 2°52.212 137.3 13 147 10.4
2010-09-01 11:03:56 51°17.025 2°52.411 136.4 13.1 143 8.9
2010-09-01 11:04:56 51°16.851 2°52.618 136.4 13 142 8.8
2010-09-01 11:05:56 51°16.677 2°52.83 136.1 13 142 10.2
2010-09-01 11:06:56 51°16.499 2°53.034 138.5 12.9 149 10.9
2010-09-01 11:07:56 51°16.307 2°53.196 148.3 13.1 156 10.9
2010-09-01 11:08:56 51°16.104 2°53.329 149.2 13.1 158 10.7
2010-09-01 11:09:56 51°15.904 2°53.466 148.8 13.1 157 10.5
2010-09-01 11:10:56 51°15.707 2°53.609 146.1 13 157 10.3
2010-09-01 11:11:56 51°15.523 2°53.783 139.3 12.7 147 10
2010-09-01 11:12:56 51°15.346 2°53.974 136.7 12.8 143 9.7
2010-09-01 11:13:56 51°15.174 2°54.174 136 12.9 144 9.1
2010-09-01 11:14:56 51°15.002 2°54.369 136.4 12.5 145 7.9
2010-09-01 11:15:58 51°14.827 2°54.587 135.6 12.8 142 5.5
2010-09-01 11:16:58 51°14.663 2°54.795 134.2 12.5 141 10.3
2010-09-01 11:17:56 51°14.505 2°54.993 134.9 12.5 142 10.1
2010-09-01 11:18:56 51°14.344 2°55.2 141.5 12 144 9.2
2010-09-01 11:19:56 51°14.202 2°55.346 148 9 150 9.7
2010-09-01 11:20:56 51°14.08 2°55.442 153.8 8 156 9.2
2010-09-01 11:21:56 51°13.962 2°55.527 154.6 6.8 156 9.8
2010-09-01 11:22:56 51°13.875 2°55.592 152.8 5.3 154 9.5
2010-09-01 11:23:56 51°13.798 2°55.664 143.2 5.4 142 10.8
2010-09-01 11:24:56 51°13.739 2°55.756 130.4 4.8 132 9.8
2010-09-01 11:25:56 51°13.692 2°55.853 122.1 4.4 123 7.7
2010-09-01 11:26:56 51°13.667 2°55.942 106.2 2.5 107 6.3
2010-09-01 11:27:56 51°13.662 2°55.959 124.9 -999 -999 5.3
2010-09-01 11:28:56 51°13.662 2°55.959 128.9 0.1 273 5.3
2010-09-01 11:29:56 51°13.661 2°55.959 129.3 -999 115 5.3